createdAt,value
2022-12-15T00:00:01.792Z,100323.38
2022-12-15T00:02:47.346Z,100320.75
2022-12-15T00:05:33.172Z,100315.50
2022-12-15T00:08:26.929Z,100318.13
2022-12-15T00:11:12.667Z,100321.63
2022-12-15T00:14:00.094Z,100325.06
2022-12-15T00:16:45.447Z,100315.38
2022-12-15T00:19:30.813Z,100314.47
2022-12-15T00:22:16.088Z,100316.19
2022-12-15T00:25:03.095Z,100317.94
2022-12-15T00:27:48.567Z,100313.63
2022-12-15T00:30:34.134Z,100315.31
2022-12-15T00:33:19.654Z,100319.66
2022-12-15T00:36:05.085Z,100320.50
2022-12-15T00:38:43.986Z,100319.53
2022-12-15T00:41:15.328Z,100334.25
2022-12-15T00:43:44.034Z,100336.03
2022-12-15T00:46:29.332Z,100337.56
2022-12-15T00:48:57.511Z,100338.31
2022-12-15T00:51:43.371Z,100340.00
2022-12-15T00:54:29.248Z,100345.88
2022-12-15T00:57:16.171Z,100328.50
2022-12-15T01:00:01.771Z,100345.97
2022-12-15T01:02:46.925Z,100352.09
2022-12-15T01:05:32.586Z,100337.09
2022-12-15T01:08:18.416Z,100333.53
2022-12-15T01:11:03.555Z,100330.09
2022-12-15T01:13:50.119Z,100329.16
2022-12-15T01:16:36.093Z,100329.00
2022-12-15T01:19:21.601Z,100314.22
2022-12-15T01:21:50.125Z,100322.84
2022-12-15T01:24:18.277Z,100328.13
2022-12-15T01:26:46.353Z,100330.81
2022-12-15T01:29:15.970Z,100337.84
2022-12-15T01:31:44.382Z,100329.22
2022-12-15T01:34:22.552Z,100332.13
2022-12-15T01:36:50.388Z,100336.34
2022-12-15T01:39:18.242Z,100332.06
2022-12-15T01:41:45.226Z,100332.91
2022-12-15T01:44:19.402Z,100331.97
2022-12-15T01:46:50.527Z,100332.06
2022-12-15T01:49:23.226Z,100335.44
2022-12-15T01:51:56.896Z,100332.00
2022-12-15T01:54:30.264Z,100323.38
2022-12-15T01:57:02.034Z,100334.63
2022-12-15T01:59:37.058Z,100347.63
2022-12-15T02:02:05.789Z,100346.66
2022-12-15T02:04:34.839Z,100363.25
2022-12-15T02:07:02.967Z,100357.94
2022-12-15T02:09:31.695Z,100365.94
2022-12-15T02:12:03.311Z,100361.59
2022-12-15T02:14:49.869Z,100358.94
2022-12-15T02:17:28.482Z,100350.31
2022-12-15T02:20:35.056Z,100363.34
2022-12-15T02:23:50.318Z,100363.34
2022-12-15T02:26:59.226Z,100354.59
2022-12-15T02:29:53.913Z,100345.88
2022-12-15T02:32:27.907Z,100349.31
2022-12-15T02:35:03.324Z,100357.13
2022-12-15T02:37:34.385Z,100364.00
2022-12-15T02:40:02.962Z,100359.56
2022-12-15T02:42:34.193Z,100356.00
2022-12-15T02:45:06.660Z,100362.13
2022-12-15T02:47:46.246Z,100352.63
2022-12-15T02:50:43.029Z,100358.53
2022-12-15T02:53:25.275Z,100344.63
2022-12-15T02:56:05.442Z,100343.84
2022-12-15T02:58:40.053Z,100358.47
2022-12-15T03:01:16.181Z,100356.66
2022-12-15T03:03:47.865Z,100365.41
2022-12-15T03:06:17.356Z,100360.09
2022-12-15T03:08:45.438Z,100358.28
2022-12-15T03:11:13.532Z,100359.97
2022-12-15T03:13:41.628Z,100355.59
2022-12-15T03:16:09.746Z,100345.09
2022-12-15T03:18:38.253Z,100350.22
2022-12-15T03:21:07.687Z,100343.34
2022-12-15T03:23:35.702Z,100351.19
2022-12-15T03:26:03.809Z,100360.63
2022-12-15T03:28:31.702Z,100351.88
2022-12-15T03:30:59.878Z,100357.09
2022-12-15T03:33:28.307Z,100364.00
2022-12-15T03:35:56.634Z,100368.31
2022-12-15T03:38:26.099Z,100358.59
2022-12-15T03:40:54.102Z,100361.22
2022-12-15T03:43:21.978Z,100357.63
2022-12-15T03:45:50.325Z,100357.56
2022-12-15T03:48:18.735Z,100348.09
2022-12-15T03:50:49.022Z,100366.47
2022-12-15T03:53:17.016Z,100357.88
2022-12-15T03:55:46.581Z,100363.78
2022-12-15T03:58:14.554Z,100366.25
2022-12-15T04:00:44.984Z,100362.66
2022-12-15T04:03:13.349Z,100354.88
2022-12-15T04:05:41.401Z,100361.00
2022-12-15T04:08:09.481Z,100367.13
2022-12-15T04:10:37.413Z,100374.13
2022-12-15T04:13:08.879Z,100381.06
2022-12-15T04:15:38.509Z,100383.63
2022-12-15T04:18:10.374Z,100378.38
2022-12-15T04:20:38.970Z,100385.44
2022-12-15T04:23:08.059Z,100373.22
2022-12-15T04:25:54.371Z,100372.44
2022-12-15T04:28:41.553Z,100381.25
2022-12-15T04:31:29.004Z,100382.97
2022-12-15T04:34:17.278Z,100369.13
2022-12-15T04:37:05.364Z,100393.34
2022-12-15T04:39:52.786Z,100385.44
2022-12-15T04:42:38.336Z,100400.19
2022-12-15T04:45:27.643Z,100393.97
2022-12-15T04:48:12.678Z,100381.16
2022-12-15T04:50:58.333Z,100393.41
2022-12-15T04:53:43.786Z,100389.78
2022-12-15T04:56:30.535Z,100386.22
2022-12-15T04:59:15.744Z,100389.53
2022-12-15T05:02:02.727Z,100380.84
2022-12-15T05:04:48.598Z,100385.13
2022-12-15T05:07:34.184Z,100403.28
2022-12-15T05:10:19.979Z,100400.50
2022-12-15T05:13:05.598Z,100396.03
2022-12-15T05:15:52.211Z,100398.63
2022-12-15T05:18:39.613Z,100405.81
2022-12-15T05:21:25.574Z,100401.44
2022-12-15T05:24:11.148Z,100408.28
2022-12-15T05:26:56.913Z,100404.03
2022-12-15T05:29:42.212Z,100404.91
2022-12-15T05:32:11.900Z,100400.56
2022-12-15T05:34:41.185Z,100404.88
2022-12-15T05:37:09.287Z,100400.50
2022-12-15T05:39:37.361Z,100409.97
2022-12-15T05:42:05.653Z,100413.38
2022-12-15T05:44:33.510Z,100420.41
2022-12-15T05:47:01.637Z,100410.03
2022-12-15T05:49:29.549Z,100415.25
2022-12-15T05:51:58.891Z,100425.81
2022-12-15T05:54:26.832Z,100427.47
2022-12-15T05:56:54.618Z,100427.41
2022-12-15T05:59:22.688Z,100442.19
2022-12-15T06:01:50.603Z,100444.72
2022-12-15T06:04:18.560Z,100440.44
2022-12-15T06:06:46.493Z,100435.22
2022-12-15T06:09:15.982Z,100442.97
2022-12-15T06:11:46.016Z,100436.03
2022-12-15T06:14:19.467Z,100448.16
2022-12-15T06:16:51.179Z,100455.94
2022-12-15T06:19:20.165Z,100458.44
2022-12-15T06:21:47.988Z,100458.41
2022-12-15T06:24:17.212Z,100470.56
2022-12-15T06:26:45.098Z,100466.97
2022-12-15T06:29:14.383Z,100469.56
2022-12-15T06:31:43.943Z,100476.41
2022-12-15T06:34:14.348Z,100475.63
2022-12-15T06:36:42.369Z,100475.72
2022-12-15T06:39:13.015Z,100484.81
2022-12-15T06:41:43.149Z,100477.84
2022-12-15T06:44:14.400Z,100475.22
2022-12-15T06:46:42.895Z,100475.38
2022-12-15T06:49:10.853Z,100482.44
2022-12-15T06:51:39.525Z,100475.50
2022-12-15T06:54:07.594Z,100484.28
2022-12-15T06:56:37.078Z,100492.25
2022-12-15T06:59:08.382Z,100488.75
2022-12-15T07:01:36.904Z,100492.22
2022-12-15T07:04:05.791Z,100497.50
2022-12-15T07:06:37.576Z,100494.00
2022-12-15T07:09:08.330Z,100507.09
2022-12-15T07:11:36.725Z,100500.22
2022-12-15T07:14:06.155Z,100503.75
2022-12-15T07:16:34.685Z,100505.63
2022-12-15T07:19:02.726Z,100520.34
2022-12-15T07:21:31.782Z,100525.63
2022-12-15T07:24:00.521Z,100529.97
2022-12-15T07:26:29.178Z,100530.84
2022-12-15T07:28:57.095Z,100536.03
2022-12-15T07:31:26.366Z,100552.53
2022-12-15T07:33:55.074Z,100544.81
2022-12-15T07:36:23.162Z,100551.72
2022-12-15T07:38:51.886Z,100544.84
2022-12-15T07:41:21.054Z,100547.47
2022-12-15T07:43:49.276Z,100556.94
2022-12-15T07:46:17.403Z,100566.47
2022-12-15T07:48:50.186Z,100573.25
2022-12-15T07:51:21.094Z,100572.19
2022-12-15T07:53:50.023Z,100577.13
2022-12-15T07:56:19.168Z,100585.88
2022-12-15T07:58:47.223Z,100593.69
2022-12-15T08:01:16.393Z,100589.97
2022-12-15T08:03:45.137Z,100590.66
2022-12-15T08:06:16.340Z,100585.47
2022-12-15T08:08:50.802Z,100588.00
2022-12-15T08:11:20.436Z,100584.41
2022-12-15T08:14:02.724Z,100590.50
2022-12-15T08:16:34.634Z,100598.31
2022-12-15T08:19:02.861Z,100597.53
2022-12-15T08:21:32.356Z,100597.66
2022-12-15T08:24:01.926Z,100595.03
2022-12-15T08:26:31.044Z,100611.56
2022-12-15T08:29:24.387Z,100619.41
2022-12-15T08:31:50.968Z,100613.13
2022-12-15T08:34:19.027Z,100617.31
2022-12-15T08:36:48.369Z,100623.28
2022-12-15T08:39:16.572Z,100629.00
2022-12-15T08:41:44.893Z,100626.91
2022-12-15T08:44:12.832Z,100626.69
2022-12-15T08:46:40.984Z,100617.88
2022-12-15T08:49:09.262Z,100628.25
2022-12-15T08:51:37.893Z,100619.50
2022-12-15T08:54:07.201Z,100620.31
2022-12-15T08:56:36.749Z,100623.84
2022-12-15T08:59:04.851Z,100626.41
2022-12-15T09:01:33.414Z,100627.94
2022-12-15T09:04:02.278Z,100621.53
2022-12-15T09:06:35.285Z,100621.19
2022-12-15T09:09:05.654Z,100614.06
2022-12-15T09:11:35.571Z,100621.88
2022-12-15T09:14:03.845Z,100623.34
2022-12-15T09:16:31.992Z,100620.50
2022-12-15T09:19:01.107Z,100618.50
2022-12-15T09:21:32.000Z,100625.22
2022-12-15T09:24:02.214Z,100630.19
2022-12-15T09:26:32.488Z,100629.06
2022-12-15T09:29:02.946Z,100608.88
2022-12-15T09:31:33.470Z,100614.88
2022-12-15T09:34:02.583Z,100622.91
2022-12-15T09:36:32.615Z,100634.16
2022-12-15T09:39:01.974Z,100629.81
2022-12-15T09:41:32.148Z,100633.47
2022-12-15T09:44:05.268Z,100638.34
2022-12-15T09:46:50.240Z,100632.91
2022-12-15T09:49:26.407Z,100631.88
2022-12-15T09:52:01.028Z,100629.03
2022-12-15T09:54:33.404Z,100646.53
2022-12-15T09:57:06.361Z,100635.31
2022-12-15T09:59:43.434Z,100646.31
2022-12-15T10:02:30.434Z,100650.22
2022-12-15T10:05:07.098Z,100643.34
2022-12-15T10:07:42.272Z,100647.81
2022-12-15T10:10:18.930Z,100639.06
2022-12-15T10:12:59.903Z,100632.56
2022-12-15T10:15:37.303Z,100628.84
2022-12-15T10:18:12.835Z,100626.97
2022-12-15T10:20:41.329Z,100614.69
2022-12-15T10:23:15.359Z,100626.38
2022-12-15T10:25:51.485Z,100624.59
2022-12-15T10:28:51.348Z,100633.22
2022-12-15T10:31:32.804Z,100631.34
2022-12-15T10:34:23.348Z,100625.84
2022-12-15T10:36:54.850Z,100626.59
2022-12-15T10:39:24.175Z,100627.94
2022-12-15T10:42:12.522Z,100624.09
2022-12-15T10:44:42.743Z,100630.88
2022-12-15T10:47:19.015Z,100627.53
2022-12-15T10:49:48.988Z,100620.13
2022-12-15T10:52:24.469Z,100626.03
2022-12-15T10:54:56.556Z,100628.00
2022-12-15T10:57:29.118Z,100628.34
2022-12-15T10:59:59.952Z,100632.41
2022-12-15T11:02:36.832Z,100626.94
2022-12-15T11:05:11.172Z,100622.50
2022-12-15T11:07:43.213Z,100628.03
2022-12-15T11:10:21.313Z,100626.31
2022-12-15T11:12:59.831Z,100637.25
2022-12-15T11:15:40.126Z,100623.28
2022-12-15T11:18:17.219Z,100612.41
2022-12-15T11:20:52.012Z,100630.16
2022-12-15T11:23:28.091Z,100611.78
2022-12-15T11:26:06.777Z,100617.91
2022-12-15T11:28:42.448Z,100636.13
2022-12-15T11:31:18.716Z,100617.34
2022-12-15T11:33:49.316Z,100626.69
2022-12-15T11:36:25.635Z,100632.41
2022-12-15T11:39:00.248Z,100620.19
2022-12-15T11:41:39.638Z,100629.88
2022-12-15T11:44:26.900Z,100636.81
2022-12-15T11:47:07.220Z,100634.13
2022-12-15T11:49:54.214Z,100635.28
2022-12-15T11:52:35.896Z,100640.91
2022-12-15T11:55:16.318Z,100652.53
2022-12-15T11:58:02.316Z,100648.38
2022-12-15T12:00:35.676Z,100646.81
2022-12-15T12:03:16.186Z,100645.84
2022-12-15T12:05:58.526Z,100649.38
2022-12-15T12:09:04.094Z,100649.00
2022-12-15T12:11:41.583Z,100645.69
2022-12-15T12:14:20.781Z,100647.06
2022-12-15T12:16:55.773Z,100652.69
2022-12-15T12:19:28.808Z,100652.47
2022-12-15T12:22:03.665Z,100655.53
2022-12-15T12:24:36.704Z,100650.81
2022-12-15T12:27:12.583Z,100647.03
2022-12-15T12:29:48.717Z,100648.34
2022-12-15T12:32:25.355Z,100652.16
2022-12-15T12:35:31.676Z,100652.97
2022-12-15T12:38:03.129Z,100658.00
2022-12-15T12:40:42.287Z,100656.31
2022-12-15T12:43:14.397Z,100659.97
2022-12-15T12:45:50.807Z,100664.75
2022-12-15T12:48:25.944Z,100657.78
2022-12-15T12:51:10.886Z,100655.81
2022-12-15T12:53:40.198Z,100649.97
2022-12-15T12:56:08.371Z,100645.91
2022-12-15T12:58:39.689Z,100643.09
2022-12-15T13:01:21.104Z,100639.06
2022-12-15T13:04:07.622Z,100635.25
2022-12-15T13:06:59.582Z,100639.19
2022-12-15T13:09:40.368Z,100649.09
2022-12-15T13:12:53.183Z,100652.94
2022-12-15T13:15:35.682Z,100654.84
2022-12-15T13:18:08.356Z,100655.84
2022-12-15T13:20:38.127Z,100649.41
2022-12-15T13:23:41.505Z,100645.97
2022-12-15T13:26:20.829Z,100643.00
2022-12-15T13:28:53.432Z,100639.94
2022-12-15T13:31:33.687Z,100638.94
2022-12-15T13:34:15.390Z,100647.03
2022-12-15T13:37:02.496Z,100643.41
2022-12-15T13:39:58.925Z,100653.94
2022-12-15T13:42:53.226Z,100650.25
2022-12-15T13:45:42.901Z,100651.41
2022-12-15T13:48:21.470Z,100650.81
2022-12-15T13:50:57.216Z,100652.47
2022-12-15T13:53:26.868Z,100663.56
2022-12-15T13:56:01.782Z,100653.84
2022-12-15T13:58:34.852Z,100650.00
2022-12-15T14:01:03.864Z,100658.13
2022-12-15T14:03:32.301Z,100653.59
2022-12-15T14:06:01.547Z,100658.19
2022-12-15T14:08:31.716Z,100663.38
2022-12-15T14:11:22.235Z,100654.72
2022-12-15T14:13:54.678Z,100653.59
2022-12-15T14:16:24.770Z,100655.16
2022-12-15T14:19:11.561Z,100662.97
2022-12-15T14:21:39.832Z,100661.97
2022-12-15T14:24:40.232Z,100664.34
2022-12-15T14:27:09.772Z,100663.94
2022-12-15T14:29:39.890Z,100663.94
2022-12-15T14:32:11.034Z,100658.06
2022-12-15T14:34:41.966Z,100663.31
2022-12-15T14:37:14.985Z,100654.31
2022-12-15T14:39:46.763Z,100661.16
2022-12-15T14:42:19.055Z,100670.28
2022-12-15T14:44:54.919Z,100657.09
2022-12-15T14:47:29.619Z,100669.88
2022-12-15T14:50:02.590Z,100670.81
2022-12-15T14:52:36.199Z,100671.47
2022-12-15T14:55:27.537Z,100672.31
2022-12-15T14:57:58.697Z,100678.25
2022-12-15T15:00:34.068Z,100682.44
2022-12-15T15:05:58.268Z,100673.88
2022-12-15T15:08:29.822Z,100685.22
2022-12-15T15:11:02.942Z,100688.63
2022-12-15T15:13:40.111Z,100676.50
2022-12-15T15:16:19.174Z,100674.06
2022-12-15T15:18:51.123Z,100688.69
2022-12-15T15:21:22.983Z,100686.97
2022-12-15T15:24:22.688Z,100686.91
2022-12-15T15:26:50.771Z,100692.03
2022-12-15T15:29:41.088Z,100680.41
2022-12-15T15:32:17.431Z,100694.28
2022-12-15T15:34:47.139Z,100690.09
2022-12-15T15:37:20.119Z,100695.69
2022-12-15T15:39:50.360Z,100694.53
2022-12-15T15:42:18.897Z,100692.28
2022-12-15T15:44:47.599Z,100695.28
2022-12-15T15:47:23.315Z,100697.53
2022-12-15T15:49:54.948Z,100701.13
2022-12-15T15:52:23.884Z,100699.63
2022-12-15T15:54:54.247Z,100694.06
2022-12-15T15:57:22.618Z,100700.63
2022-12-15T15:59:51.143Z,100701.31
2022-12-15T16:02:20.917Z,100701.28
2022-12-15T16:04:49.015Z,100698.88
2022-12-15T16:07:24.094Z,100702.00
2022-12-15T16:09:52.429Z,100696.25
2022-12-15T16:12:27.616Z,100691.44
2022-12-15T16:14:56.246Z,100681.91
2022-12-15T16:17:25.797Z,100683.69
2022-12-15T16:19:53.780Z,100685.16
2022-12-15T16:22:23.442Z,100685.69
2022-12-15T16:24:51.392Z,100682.06
2022-12-15T16:27:19.266Z,100681.09
2022-12-15T16:29:47.266Z,100687.06
2022-12-15T16:32:15.518Z,100685.22
2022-12-15T16:34:44.947Z,100677.44
2022-12-15T16:37:26.303Z,100690.72
2022-12-15T16:39:54.401Z,100697.66
2022-12-15T16:42:23.259Z,100695.84
2022-12-15T16:44:51.200Z,100700.03
2022-12-15T16:47:19.243Z,100705.50
2022-12-15T16:49:48.510Z,100713.72
2022-12-15T16:52:20.848Z,100701.94
2022-12-15T16:54:50.185Z,100705.50
2022-12-15T16:57:18.455Z,100716.31
2022-12-15T16:59:46.486Z,100709.16
2022-12-15T17:02:27.004Z,100719.91
2022-12-15T17:04:56.760Z,100719.69
2022-12-15T17:07:27.890Z,100715.38
2022-12-15T17:09:55.805Z,100726.69
2022-12-15T17:12:23.665Z,100730.03
2022-12-15T17:14:51.743Z,100730.88
2022-12-15T17:17:21.012Z,100732.75
2022-12-15T17:22:39.637Z,100734.31
2022-12-15T17:25:11.220Z,100733.53
2022-12-15T17:27:39.450Z,100742.50
2022-12-15T17:30:14.375Z,100730.13
2022-12-15T17:32:42.489Z,100733.09
2022-12-15T17:35:11.191Z,100739.34
2022-12-15T17:37:41.416Z,100755.91
2022-12-15T17:40:18.098Z,100749.13
2022-12-15T17:42:54.619Z,100753.78
2022-12-15T17:45:24.444Z,100757.28
2022-12-15T17:47:53.522Z,100755.59
2022-12-15T17:50:21.386Z,100758.34
2022-12-15T17:52:51.088Z,100755.69
2022-12-15T17:55:22.713Z,100767.06
2022-12-15T17:57:51.336Z,100769.69
2022-12-15T18:00:23.150Z,100774.22
2022-12-15T18:02:51.425Z,100769.09
2022-12-15T18:05:20.537Z,100775.25
2022-12-15T18:07:54.269Z,100786.03
2022-12-15T18:10:27.043Z,100786.16
2022-12-15T18:12:55.401Z,100785.44
2022-12-15T18:15:25.550Z,100793.47
2022-12-15T18:17:56.064Z,100786.59
2022-12-15T18:20:24.772Z,100793.63
2022-12-15T18:22:54.118Z,100787.66
2022-12-15T18:25:26.054Z,100787.06
2022-12-15T18:27:55.040Z,100796.91
2022-12-15T18:30:24.812Z,100795.31
2022-12-15T18:32:55.807Z,100797.81
2022-12-15T18:35:29.858Z,100805.25
2022-12-15T18:37:59.508Z,100806.28
2022-12-15T18:40:30.789Z,100812.38
2022-12-15T18:42:59.050Z,100805.59
2022-12-15T18:45:28.359Z,100815.16
2022-12-15T18:47:56.376Z,100817.94
2022-12-15T18:50:26.897Z,100818.28
2022-12-15T18:52:59.665Z,100827.25
2022-12-15T18:55:31.123Z,100828.19
2022-12-15T18:58:00.743Z,100823.81
2022-12-15T19:00:30.563Z,100829.94
2022-12-15T19:03:00.969Z,100828.19
2022-12-15T19:05:32.585Z,100829.94
2022-12-15T19:08:08.315Z,100837.00
2022-12-15T19:10:41.285Z,100836.09
2022-12-15T19:13:16.672Z,100838.66
2022-12-15T19:15:45.176Z,100848.25
2022-12-15T19:18:33.451Z,100850.88
2022-12-15T19:21:28.945Z,100853.47
2022-12-15T19:23:58.503Z,100860.53
2022-12-15T19:26:26.638Z,100866.03
2022-12-15T19:28:54.920Z,100861.75
2022-12-15T19:31:23.029Z,100873.09
2022-12-15T19:33:56.994Z,100881.06
2022-12-15T19:36:25.669Z,100879.41
2022-12-15T19:38:58.880Z,100881.13
2022-12-15T19:41:27.651Z,100883.81
2022-12-15T19:43:55.621Z,100884.63
2022-12-15T19:46:24.043Z,100885.69
2022-12-15T19:48:52.084Z,100887.63
2022-12-15T19:51:23.151Z,100886.78
2022-12-15T19:53:52.005Z,100886.63
2022-12-15T19:56:23.687Z,100890.16
2022-12-15T19:58:52.093Z,100886.56
2022-12-15T20:01:21.286Z,100881.25
2022-12-15T20:03:50.969Z,100880.38
2022-12-15T20:06:21.381Z,100882.09
2022-12-15T20:08:54.665Z,100883.75
2022-12-15T20:11:26.647Z,100892.66
2022-12-15T20:13:56.142Z,100893.63
2022-12-15T20:16:24.889Z,100895.19
2022-12-15T20:18:54.791Z,100903.13
2022-12-15T20:21:27.521Z,100907.59
2022-12-15T20:24:00.550Z,100909.41
2022-12-15T20:26:33.160Z,100911.06
2022-12-15T20:29:01.466Z,100919.00
2022-12-15T20:31:29.536Z,100930.31
2022-12-15T20:33:57.502Z,100936.28
2022-12-15T20:36:30.703Z,100931.75
2022-12-15T20:38:59.243Z,100926.75
2022-12-15T20:41:28.911Z,100939.97
2022-12-15T20:43:59.021Z,100947.09
2022-12-15T20:46:30.225Z,100939.94
2022-12-15T20:48:58.306Z,100930.34
2022-12-15T20:51:28.057Z,100939.34
2022-12-15T20:53:58.233Z,100937.56
2022-12-15T20:56:27.555Z,100936.19
2022-12-15T20:58:56.995Z,100927.53
2022-12-15T21:01:32.003Z,100931.00
2022-12-15T21:04:02.029Z,100931.00
2022-12-15T21:06:31.628Z,100934.47
2022-12-15T21:08:59.487Z,100940.75
2022-12-15T21:11:29.758Z,100943.53
2022-12-15T21:14:04.019Z,100937.47
2022-12-15T21:16:35.584Z,100941.19
2022-12-15T21:19:19.952Z,100949.94
2022-12-15T21:21:52.244Z,100950.06
2022-12-15T21:24:25.838Z,100946.47
2022-12-15T21:26:54.998Z,100946.44
2022-12-15T21:29:25.252Z,100944.81
2022-12-15T21:31:54.775Z,100943.13
2022-12-15T21:34:23.974Z,100937.72
2022-12-15T21:36:55.105Z,100947.44
2022-12-15T21:39:29.264Z,100944.94
2022-12-15T21:41:59.219Z,100956.31
2022-12-15T21:44:27.061Z,100947.41
2022-12-15T21:46:56.360Z,100944.59
2022-12-15T21:49:24.389Z,100955.19
2022-12-15T21:51:54.878Z,100949.84
2022-12-15T21:54:30.615Z,100932.19
2022-12-15T21:57:00.007Z,100934.81
2022-12-15T21:59:30.781Z,100937.69
2022-12-15T22:02:00.935Z,100950.03
2022-12-15T22:04:31.915Z,100948.53
2022-12-15T22:06:59.849Z,100949.44
2022-12-15T22:09:27.885Z,100945.25
2022-12-15T22:11:57.614Z,100943.50
2022-12-15T22:14:27.335Z,100947.75
2022-12-15T22:16:55.678Z,100947.84
2022-12-15T22:19:25.601Z,100952.22
2022-12-15T22:21:53.630Z,100952.28
2022-12-15T22:24:21.648Z,100957.78
2022-12-15T22:26:50.024Z,100960.41
2022-12-15T22:29:20.405Z,100963.00
2022-12-15T22:31:49.512Z,100962.97
2022-12-15T22:34:20.936Z,100963.84
2022-12-15T22:36:50.773Z,100970.78
2022-12-15T22:39:20.358Z,100976.00
2022-12-15T22:41:50.430Z,100974.34
2022-12-15T22:44:21.634Z,100970.81
2022-12-15T22:46:50.985Z,100979.44
2022-12-15T22:49:21.576Z,100981.22
2022-12-15T22:51:51.411Z,100979.56
2022-12-15T22:54:20.864Z,100990.00
2022-12-15T22:56:51.781Z,100978.69
2022-12-15T22:59:25.931Z,100973.50
2022-12-15T23:01:54.156Z,100983.97
2022-12-15T23:04:23.120Z,100990.81
2022-12-15T23:06:52.540Z,100991.72
2022-12-15T23:11:41.986Z,100994.41
2022-12-15T23:14:12.206Z,100988.25
2022-12-15T23:16:39.607Z,100982.00
2022-12-15T23:19:09.042Z,100987.34
2022-12-15T23:21:37.764Z,100996.00
2022-12-15T23:24:05.894Z,100988.22
2022-12-15T23:26:34.135Z,100993.53
2022-12-15T23:29:03.885Z,101010.03
2022-12-15T23:31:32.087Z,101009.06
2022-12-15T23:34:00.400Z,100996.75
2022-12-15T23:36:28.386Z,101014.41
2022-12-15T23:38:57.848Z,101010.84
2022-12-15T23:41:26.134Z,101023.13
2022-12-15T23:43:54.208Z,101016.91
2022-12-15T23:46:23.861Z,101014.28
2022-12-15T23:48:51.871Z,101017.00
2022-12-15T23:51:21.022Z,101023.03
2022-12-15T23:53:49.434Z,101022.97
2022-12-15T23:56:19.568Z,101020.22
2022-12-15T23:58:49.609Z,101021.81
